sensor_id;sensor_type;location;lat;lon;timestamp;P1;durP1;ratioP1;P2;durP2;ratioP2
11247;SDS011;5681;53.316;13.950;2023-05-20T00:00:37;6.03;;;3.50;;
11247;SDS011;5681;53.316;13.950;2023-05-20T00:03:03;7.00;;;3.28;;
11247;SDS011;5681;53.316;13.950;2023-05-20T00:05:30;4.10;;;3.08;;
11247;SDS011;5681;53.316;13.950;2023-05-20T00:07:56;8.05;;;3.55;;
11247;SDS011;5681;53.316;13.950;2023-05-20T00:10:23;6.22;;;3.30;;
11247;SDS011;5681;53.316;13.950;2023-05-20T00:12:49;6.03;;;3.20;;
11247;SDS011;5681;53.316;13.950;2023-05-20T00:15:17;4.80;;;3.20;;
11247;SDS011;5681;53.316;13.950;2023-05-20T00:17:44;7.35;;;3.80;;
11247;SDS011;5681;53.316;13.950;2023-05-20T00:20:10;5.55;;;3.15;;
11247;SDS011;5681;53.316;13.950;2023-05-20T00:22:37;4.38;;;3.17;;
11247;SDS011;5681;53.316;13.950;2023-05-20T00:25:04;5.80;;;3.22;;
11247;SDS011;5681;53.316;13.950;2023-05-20T00:27:30;5.63;;;3.00;;
11247;SDS011;5681;53.316;13.950;2023-05-20T00:29:57;6.20;;;3.22;;
11247;SDS011;5681;53.316;13.950;2023-05-20T00:32:24;4.32;;;2.97;;
11247;SDS011;5681;53.316;13.950;2023-05-20T00:34:54;5.90;;;3.15;;
11247;SDS011;5681;53.316;13.950;2023-05-20T00:37:21;5.40;;;3.20;;
11247;SDS011;5681;53.316;13.950;2023-05-20T00:39:47;5.00;;;3.30;;
11247;SDS011;5681;53.316;13.950;2023-05-20T00:42:18;7.78;;;3.30;;
11247;SDS011;5681;53.316;13.950;2023-05-20T00:44:45;4.85;;;3.20;;
11247;SDS011;5681;53.316;13.950;2023-05-20T00:47:11;6.13;;;3.17;;
11247;SDS011;5681;53.316;13.950;2023-05-20T00:49:39;3.95;;;3.13;;
11247;SDS011;5681;53.316;13.950;2023-05-20T00:52:06;8.50;;;3.30;;
11247;SDS011;5681;53.316;13.950;2023-05-20T00:54:33;5.55;;;3.25;;
11247;SDS011;5681;53.316;13.950;2023-05-20T00:56:59;8.07;;;3.13;;
11247;SDS011;5681;53.316;13.950;2023-05-20T00:59:26;3.47;;;3.15;;
11247;SDS011;5681;53.316;13.950;2023-05-20T01:01:53;3.88;;;2.97;;
11247;SDS011;5681;53.316;13.950;2023-05-20T01:04:19;6.00;;;3.28;;
11247;SDS011;5681;53.316;13.950;2023-05-20T01:06:47;3.90;;;3.08;;
11247;SDS011;5681;53.316;13.950;2023-05-20T01:09:13;7.00;;;3.30;;
11247;SDS011;5681;53.316;13.950;2023-05-20T01:11:41;6.18;;;3.47;;
11247;SDS011;5681;53.316;13.950;2023-05-20T01:14:09;5.70;;;3.63;;
11247;SDS011;5681;53.316;13.950;2023-05-20T01:16:37;4.18;;;3.40;;
11247;SDS011;5681;53.316;13.950;2023-05-20T01:19:05;4.55;;;3.30;;
11247;SDS011;5681;53.316;13.950;2023-05-20T01:21:39;5.00;;;3.47;;
11247;SDS011;5681;53.316;13.950;2023-05-20T01:24:07;4.07;;;3.08;;
11247;SDS011;5681;53.316;13.950;2023-05-20T01:26:34;8.02;;;3.80;;
11247;SDS011;5681;53.316;13.950;2023-05-20T01:29:02;3.78;;;3.05;;
11247;SDS011;5681;53.316;13.950;2023-05-20T01:31:30;5.25;;;3.25;;
11247;SDS011;5681;53.316;13.950;2023-05-20T01:33:57;5.68;;;3.28;;
11247;SDS011;5681;53.316;13.950;2023-05-20T01:36:24;4.20;;;3.00;;
11247;SDS011;5681;53.316;13.950;2023-05-20T01:38:51;4.57;;;3.05;;
11247;SDS011;5681;53.316;13.950;2023-05-20T01:41:19;5.85;;;2.90;;
11247;SDS011;5681;53.316;13.950;2023-05-20T01:43:46;3.67;;;2.95;;
11247;SDS011;5681;53.316;13.950;2023-05-20T01:46:13;6.10;;;3.10;;
11247;SDS011;5681;53.316;13.950;2023-05-20T01:48:40;7.10;;;3.13;;
11247;SDS011;5681;53.316;13.950;2023-05-20T01:51:06;4.68;;;3.17;;
11247;SDS011;5681;53.316;13.950;2023-05-20T01:53:33;4.65;;;3.42;;
11247;SDS011;5681;53.316;13.950;2023-05-20T01:55:59;4.07;;;3.10;;
11247;SDS011;5681;53.316;13.950;2023-05-20T01:58:27;5.15;;;3.03;;
11247;SDS011;5681;53.316;13.950;2023-05-20T02:00:53;5.32;;;2.95;;
11247;SDS011;5681;53.316;13.950;2023-05-20T02:03:20;3.42;;;2.92;;
11247;SDS011;5681;53.316;13.950;2023-05-20T02:05:46;4.28;;;3.20;;
11247;SDS011;5681;53.316;13.950;2023-05-20T02:08:13;5.82;;;3.20;;
11247;SDS011;5681;53.316;13.950;2023-05-20T02:10:39;4.82;;;3.33;;
11247;SDS011;5681;53.316;13.950;2023-05-20T02:13:05;4.18;;;3.25;;
11247;SDS011;5681;53.316;13.950;2023-05-20T02:15:33;5.63;;;3.15;;
11247;SDS011;5681;53.316;13.950;2023-05-20T02:17:59;4.97;;;3.08;;
11247;SDS011;5681;53.316;13.950;2023-05-20T02:20:26;7.63;;;3.60;;
11247;SDS011;5681;53.316;13.950;2023-05-20T02:22:52;6.55;;;3.65;;
11247;SDS011;5681;53.316;13.950;2023-05-20T02:25:19;4.68;;;3.05;;
11247;SDS011;5681;53.316;13.950;2023-05-20T02:27:45;4.65;;;3.35;;
11247;SDS011;5681;53.316;13.950;2023-05-20T02:30:11;5.80;;;3.22;;
11247;SDS011;5681;53.316;13.950;2023-05-20T02:32:40;5.25;;;3.70;;
11247;SDS011;5681;53.316;13.950;2023-05-20T02:35:07;5.13;;;3.15;;
11247;SDS011;5681;53.316;13.950;2023-05-20T02:37:33;5.32;;;3.50;;
11247;SDS011;5681;53.316;13.950;2023-05-20T02:40:00;5.80;;;3.50;;
11247;SDS011;5681;53.316;13.950;2023-05-20T02:42:26;6.95;;;3.47;;
11247;SDS011;5681;53.316;13.950;2023-05-20T02:44:53;3.63;;;2.90;;
11247;SDS011;5681;53.316;13.950;2023-05-20T02:47:22;4.50;;;3.40;;
11247;SDS011;5681;53.316;13.950;2023-05-20T02:49:50;8.30;;;3.72;;
11247;SDS011;5681;53.316;13.950;2023-05-20T02:52:16;5.07;;;3.33;;
11247;SDS011;5681;53.316;13.950;2023-05-20T02:54:43;3.97;;;3.03;;
11247;SDS011;5681;53.316;13.950;2023-05-20T02:57:09;6.05;;;3.28;;
11247;SDS011;5681;53.316;13.950;2023-05-20T02:59:35;5.60;;;3.58;;
11247;SDS011;5681;53.316;13.950;2023-05-20T03:02:02;6.60;;;3.10;;
11247;SDS011;5681;53.316;13.950;2023-05-20T03:04:28;4.65;;;2.70;;
11247;SDS011;5681;53.316;13.950;2023-05-20T03:06:56;4.70;;;3.15;;
11247;SDS011;5681;53.316;13.950;2023-05-20T03:09:23;4.18;;;2.85;;
11247;SDS011;5681;53.316;13.950;2023-05-20T03:11:49;5.40;;;2.85;;
11247;SDS011;5681;53.316;13.950;2023-05-20T03:14:16;6.10;;;3.13;;
11247;SDS011;5681;53.316;13.950;2023-05-20T03:16:42;5.10;;;2.83;;
11247;SDS011;5681;53.316;13.950;2023-05-20T03:19:08;4.60;;;3.15;;
11247;SDS011;5681;53.316;13.950;2023-05-20T03:21:35;6.97;;;2.92;;
11247;SDS011;5681;53.316;13.950;2023-05-20T03:24:03;4.82;;;2.72;;
11247;SDS011;5681;53.316;13.950;2023-05-20T03:26:30;4.82;;;3.00;;
11247;SDS011;5681;53.316;13.950;2023-05-20T03:28:57;6.45;;;3.28;;
11247;SDS011;5681;53.316;13.950;2023-05-20T03:31:24;4.97;;;3.00;;
11247;SDS011;5681;53.316;13.950;2023-05-20T03:33:51;3.50;;;3.08;;
11247;SDS011;5681;53.316;13.950;2023-05-20T03:36:17;5.00;;;3.00;;
11247;SDS011;5681;53.316;13.950;2023-05-20T03:38:43;6.32;;;3.00;;
11247;SDS011;5681;53.316;13.950;2023-05-20T03:41:11;4.88;;;2.75;;
11247;SDS011;5681;53.316;13.950;2023-05-20T03:43:37;6.85;;;3.00;;
11247;SDS011;5681;53.316;13.950;2023-05-20T03:46:04;4.93;;;3.30;;
11247;SDS011;5681;53.316;13.950;2023-05-20T03:48:31;4.73;;;3.10;;
11247;SDS011;5681;53.316;13.950;2023-05-20T03:50:57;4.15;;;3.00;;
11247;SDS011;5681;53.316;13.950;2023-05-20T03:53:23;5.00;;;3.00;;
11247;SDS011;5681;53.316;13.950;2023-05-20T03:55:50;3.78;;;2.58;;
11247;SDS011;5681;53.316;13.950;2023-05-20T03:58:17;5.57;;;3.00;;
11247;SDS011;5681;53.316;13.950;2023-05-20T04:00:46;3.90;;;3.10;;
11247;SDS011;5681;53.316;13.950;2023-05-20T04:03:12;7.97;;;3.22;;
11247;SDS011;5681;53.316;13.950;2023-05-20T04:05:39;4.53;;;2.90;;
11247;SDS011;5681;53.316;13.950;2023-05-20T04:08:05;3.30;;;2.80;;
11247;SDS011;5681;53.316;13.950;2023-05-20T04:10:33;3.13;;;2.80;;
11247;SDS011;5681;53.316;13.950;2023-05-20T04:13:00;4.05;;;3.47;;
11247;SDS011;5681;53.316;13.950;2023-05-20T04:15:27;5.38;;;3.10;;
11247;SDS011;5681;53.316;13.950;2023-05-20T04:17:54;4.43;;;3.08;;
11247;SDS011;5681;53.316;13.950;2023-05-20T04:20:21;5.88;;;3.38;;
11247;SDS011;5681;53.316;13.950;2023-05-20T04:22:48;5.03;;;3.10;;
11247;SDS011;5681;53.316;13.950;2023-05-20T04:25:14;4.85;;;3.05;;
11247;SDS011;5681;53.316;13.950;2023-05-20T04:27:41;3.58;;;2.90;;
11247;SDS011;5681;53.316;13.950;2023-05-20T04:30:07;4.20;;;3.00;;
11247;SDS011;5681;53.316;13.950;2023-05-20T04:32:36;4.40;;;2.75;;
11247;SDS011;5681;53.316;13.950;2023-05-20T04:35:03;7.03;;;3.60;;
11247;SDS011;5681;53.316;13.950;2023-05-20T04:37:33;4.93;;;3.10;;
11247;SDS011;5681;53.316;13.950;2023-05-20T04:40:01;5.72;;;3.30;;
11247;SDS011;5681;53.316;13.950;2023-05-20T04:42:30;5.03;;;3.42;;
11247;SDS011;5681;53.316;13.950;2023-05-20T04:44:57;5.22;;;3.22;;
11247;SDS011;5681;53.316;13.950;2023-05-20T04:47:25;4.75;;;3.20;;
11247;SDS011;5681;53.316;13.950;2023-05-20T04:49:53;5.07;;;3.42;;
11247;SDS011;5681;53.316;13.950;2023-05-20T04:52:21;6.03;;;3.10;;
11247;SDS011;5681;53.316;13.950;2023-05-20T04:54:48;3.88;;;3.20;;
11247;SDS011;5681;53.316;13.950;2023-05-20T04:57:15;4.28;;;3.08;;
11247;SDS011;5681;53.316;13.950;2023-05-20T04:59:41;3.40;;;2.95;;
11247;SDS011;5681;53.316;13.950;2023-05-20T05:02:09;7.22;;;3.00;;
11247;SDS011;5681;53.316;13.950;2023-05-20T05:04:35;4.75;;;3.33;;
11247;SDS011;5681;53.316;13.950;2023-05-20T05:07:03;4.72;;;3.20;;
11247;SDS011;5681;53.316;13.950;2023-05-20T05:09:30;5.97;;;3.00;;
11247;SDS011;5681;53.316;13.950;2023-05-20T05:11:56;5.65;;;2.90;;
11247;SDS011;5681;53.316;13.950;2023-05-20T05:14:22;8.75;;;3.88;;
11247;SDS011;5681;53.316;13.950;2023-05-20T05:16:49;8.27;;;3.20;;
11247;SDS011;5681;53.316;13.950;2023-05-20T05:19:15;9.10;;;3.78;;
11247;SDS011;5681;53.316;13.950;2023-05-20T05:21:41;3.63;;;3.10;;
11247;SDS011;5681;53.316;13.950;2023-05-20T05:24:09;4.97;;;3.60;;
11247;SDS011;5681;53.316;13.950;2023-05-20T05:26:35;4.82;;;3.42;;
11247;SDS011;5681;53.316;13.950;2023-05-20T05:29:02;4.40;;;3.33;;
11247;SDS011;5681;53.316;13.950;2023-05-20T05:31:28;4.40;;;3.20;;
11247;SDS011;5681;53.316;13.950;2023-05-20T05:33:54;4.88;;;3.20;;
11247;SDS011;5681;53.316;13.950;2023-05-20T05:36:22;3.90;;;3.10;;
11247;SDS011;5681;53.316;13.950;2023-05-20T05:38:48;4.68;;;3.42;;
11247;SDS011;5681;53.316;13.950;2023-05-20T05:41:16;5.35;;;3.45;;
11247;SDS011;5681;53.316;13.950;2023-05-20T05:43:42;4.38;;;3.33;;
11247;SDS011;5681;53.316;13.950;2023-05-20T05:46:09;5.88;;;3.20;;
11247;SDS011;5681;53.316;13.950;2023-05-20T05:48:35;4.72;;;3.28;;
11247;SDS011;5681;53.316;13.950;2023-05-20T05:51:02;5.20;;;3.40;;
11247;SDS011;5681;53.316;13.950;2023-05-20T05:53:29;4.85;;;3.53;;
11247;SDS011;5681;53.316;13.950;2023-05-20T05:55:55;7.78;;;3.53;;
11247;SDS011;5681;53.316;13.950;2023-05-20T05:58:23;5.40;;;3.42;;
11247;SDS011;5681;53.316;13.950;2023-05-20T06:00:50;7.15;;;3.78;;
11247;SDS011;5681;53.316;13.950;2023-05-20T06:03:16;8.35;;;3.55;;
11247;SDS011;5681;53.316;13.950;2023-05-20T06:05:43;4.65;;;3.40;;
11247;SDS011;5681;53.316;13.950;2023-05-20T06:08:10;4.45;;;3.22;;
11247;SDS011;5681;53.316;13.950;2023-05-20T06:10:36;5.30;;;3.00;;
11247;SDS011;5681;53.316;13.950;2023-05-20T06:13:03;5.78;;;3.40;;
11247;SDS011;5681;53.316;13.950;2023-05-20T06:15:31;7.07;;;3.35;;
11247;SDS011;5681;53.316;13.950;2023-05-20T06:17:57;3.95;;;3.15;;
11247;SDS011;5681;53.316;13.950;2023-05-20T06:20:23;6.15;;;3.97;;
11247;SDS011;5681;53.316;13.950;2023-05-20T06:22:50;6.22;;;3.38;;
11247;SDS011;5681;53.316;13.950;2023-05-20T06:25:16;5.38;;;3.25;;
11247;SDS011;5681;53.316;13.950;2023-05-20T06:27:42;6.85;;;3.53;;
11247;SDS011;5681;53.316;13.950;2023-05-20T06:30:09;7.60;;;3.92;;
11247;SDS011;5681;53.316;13.950;2023-05-20T06:32:37;5.28;;;3.65;;
11247;SDS011;5681;53.316;13.950;2023-05-20T06:35:04;6.45;;;3.70;;
11247;SDS011;5681;53.316;13.950;2023-05-20T06:37:31;4.43;;;3.33;;
11247;SDS011;5681;53.316;13.950;2023-05-20T06:39:57;8.18;;;4.22;;
11247;SDS011;5681;53.316;13.950;2023-05-20T06:42:24;4.93;;;3.47;;
11247;SDS011;5681;53.316;13.950;2023-05-20T06:44:50;6.22;;;3.80;;
11247;SDS011;5681;53.316;13.950;2023-05-20T06:47:16;5.10;;;3.70;;
11247;SDS011;5681;53.316;13.950;2023-05-20T06:49:44;8.40;;;3.63;;
11247;SDS011;5681;53.316;13.950;2023-05-20T06:52:10;5.43;;;3.63;;
11247;SDS011;5681;53.316;13.950;2023-05-20T06:54:37;4.60;;;4.10;;
11247;SDS011;5681;53.316;13.950;2023-05-20T06:57:05;5.50;;;3.70;;
11247;SDS011;5681;53.316;13.950;2023-05-20T06:59:32;5.68;;;3.55;;
11247;SDS011;5681;53.316;13.950;2023-05-20T07:01:58;5.32;;;3.63;;
11247;SDS011;5681;53.316;13.950;2023-05-20T07:04:24;8.77;;;3.45;;
11247;SDS011;5681;53.316;13.950;2023-05-20T07:06:52;6.25;;;4.05;;
11247;SDS011;5681;53.316;13.950;2023-05-20T07:09:18;4.53;;;3.40;;
11247;SDS011;5681;53.316;13.950;2023-05-20T07:11:45;7.70;;;3.90;;
11247;SDS011;5681;53.316;13.950;2023-05-20T07:14:11;6.28;;;3.85;;
11247;SDS011;5681;53.316;13.950;2023-05-20T07:16:38;4.82;;;3.58;;
11247;SDS011;5681;53.316;13.950;2023-05-20T07:19:04;8.93;;;3.95;;
11247;SDS011;5681;53.316;13.950;2023-05-20T07:21:30;6.15;;;4.07;;
11247;SDS011;5681;53.316;13.950;2023-05-20T07:23:58;5.07;;;3.63;;
11247;SDS011;5681;53.316;13.950;2023-05-20T07:26:24;5.88;;;4.28;;
11247;SDS011;5681;53.316;13.950;2023-05-20T07:28:51;4.88;;;3.72;;
11247;SDS011;5681;53.316;13.950;2023-05-20T07:31:17;4.15;;;3.75;;
11247;SDS011;5681;53.316;13.950;2023-05-20T07:33:43;5.70;;;4.15;;
11247;SDS011;5681;53.316;13.950;2023-05-20T07:36:10;6.40;;;4.18;;
11247;SDS011;5681;53.316;13.950;2023-05-20T07:38:36;10.40;;;4.25;;
11247;SDS011;5681;53.316;13.950;2023-05-20T07:41:04;9.52;;;4.40;;
11247;SDS011;5681;53.316;13.950;2023-05-20T07:43:30;8.38;;;4.07;;
11247;SDS011;5681;53.316;13.950;2023-05-20T07:45:57;9.82;;;4.45;;
11247;SDS011;5681;53.316;13.950;2023-05-20T07:48:23;5.60;;;4.20;;
11247;SDS011;5681;53.316;13.950;2023-05-20T07:50:50;6.30;;;4.13;;
11247;SDS011;5681;53.316;13.950;2023-05-20T07:53:16;9.00;;;4.63;;
11247;SDS011;5681;53.316;13.950;2023-05-20T07:55:43;7.05;;;4.10;;
11247;SDS011;5681;53.316;13.950;2023-05-20T07:58:11;7.70;;;4.20;;
11247;SDS011;5681;53.316;13.950;2023-05-20T08:00:38;10.10;;;4.80;;
11247;SDS011;5681;53.316;13.950;2023-05-20T08:03:04;7.22;;;5.07;;
11247;SDS011;5681;53.316;13.950;2023-05-20T08:05:31;7.97;;;4.15;;
11247;SDS011;5681;53.316;13.950;2023-05-20T08:07:58;10.70;;;4.35;;
11247;SDS011;5681;53.316;13.950;2023-05-20T08:10:24;6.00;;;4.28;;
11247;SDS011;5681;53.316;13.950;2023-05-20T08:12:51;7.43;;;4.55;;
11247;SDS011;5681;53.316;13.950;2023-05-20T08:15:19;6.28;;;4.43;;
11247;SDS011;5681;53.316;13.950;2023-05-20T08:17:45;9.32;;;4.45;;
11247;SDS011;5681;53.316;13.950;2023-05-20T08:20:11;8.93;;;4.75;;
11247;SDS011;5681;53.316;13.950;2023-05-20T08:22:38;7.32;;;4.13;;
11247;SDS011;5681;53.316;13.950;2023-05-20T08:25:06;5.57;;;4.00;;
11247;SDS011;5681;53.316;13.950;2023-05-20T08:27:34;8.48;;;5.07;;
11247;SDS011;5681;53.316;13.950;2023-05-20T08:30:00;9.27;;;5.10;;
11247;SDS011;5681;53.316;13.950;2023-05-20T08:32:28;10.60;;;4.88;;
11247;SDS011;5681;53.316;13.950;2023-05-20T08:34:54;8.27;;;4.85;;
11247;SDS011;5681;53.316;13.950;2023-05-20T08:37:21;9.02;;;4.53;;
11247;SDS011;5681;53.316;13.950;2023-05-20T08:39:47;9.10;;;4.80;;
11247;SDS011;5681;53.316;13.950;2023-05-20T08:42:14;8.88;;;4.57;;
11247;SDS011;5681;53.316;13.950;2023-05-20T08:44:40;12.40;;;5.28;;
11247;SDS011;5681;53.316;13.950;2023-05-20T08:47:08;7.82;;;5.32;;
11247;SDS011;5681;53.316;13.950;2023-05-20T08:49:37;13.25;;;5.03;;
11247;SDS011;5681;53.316;13.950;2023-05-20T08:52:03;8.82;;;4.90;;
11247;SDS011;5681;53.316;13.950;2023-05-20T08:54:32;7.80;;;5.22;;
11247;SDS011;5681;53.316;13.950;2023-05-20T08:57:08;6.93;;;4.45;;
11247;SDS011;5681;53.316;13.950;2023-05-20T08:59:34;9.30;;;4.60;;
11247;SDS011;5681;53.316;13.950;2023-05-20T09:02:01;6.70;;;4.93;;
11247;SDS011;5681;53.316;13.950;2023-05-20T09:04:28;12.00;;;5.53;;
11247;SDS011;5681;53.316;13.950;2023-05-20T09:06:55;7.18;;;4.75;;
11247;SDS011;5681;53.316;13.950;2023-05-20T09:09:22;7.55;;;4.82;;
11247;SDS011;5681;53.316;13.950;2023-05-20T09:11:48;7.85;;;5.30;;
11247;SDS011;5681;53.316;13.950;2023-05-20T09:14:14;7.82;;;6.05;;
11247;SDS011;5681;53.316;13.950;2023-05-20T09:16:41;6.60;;;5.07;;
11247;SDS011;5681;53.316;13.950;2023-05-20T09:19:07;9.63;;;4.72;;
11247;SDS011;5681;53.316;13.950;2023-05-20T09:21:34;5.85;;;4.72;;
11247;SDS011;5681;53.316;13.950;2023-05-20T09:24:04;8.25;;;4.70;;
11247;SDS011;5681;53.316;13.950;2023-05-20T09:26:31;11.10;;;5.07;;
11247;SDS011;5681;53.316;13.950;2023-05-20T09:28:58;11.35;;;5.00;;
11247;SDS011;5681;53.316;13.950;2023-05-20T09:31:25;9.05;;;4.90;;
11247;SDS011;5681;53.316;13.950;2023-05-20T09:33:53;10.35;;;4.90;;
11247;SDS011;5681;53.316;13.950;2023-05-20T09:36:20;9.32;;;5.55;;
11247;SDS011;5681;53.316;13.950;2023-05-20T09:38:48;9.05;;;5.68;;
11247;SDS011;5681;53.316;13.950;2023-05-20T09:41:19;9.52;;;4.80;;
11247;SDS011;5681;53.316;13.950;2023-05-20T09:43:49;7.90;;;4.63;;
11247;SDS011;5681;53.316;13.950;2023-05-20T09:46:17;6.65;;;4.65;;
11247;SDS011;5681;53.316;13.950;2023-05-20T09:48:45;6.75;;;4.55;;
11247;SDS011;5681;53.316;13.950;2023-05-20T09:51:12;8.32;;;4.53;;
11247;SDS011;5681;53.316;13.950;2023-05-20T09:53:39;11.27;;;5.10;;
11247;SDS011;5681;53.316;13.950;2023-05-20T09:56:05;8.88;;;5.00;;
11247;SDS011;5681;53.316;13.950;2023-05-20T09:58:33;5.88;;;4.78;;
11247;SDS011;5681;53.316;13.950;2023-05-20T10:01:00;11.05;;;4.82;;
11247;SDS011;5681;53.316;13.950;2023-05-20T10:03:27;10.15;;;5.00;;
11247;SDS011;5681;53.316;13.950;2023-05-20T10:08:52;5.75;;;4.75;;
11247;SDS011;5681;53.316;13.950;2023-05-20T10:11:27;10.32;;;5.72;;
11247;SDS011;5681;53.316;13.950;2023-05-20T10:14:04;8.82;;;5.05;;
11247;SDS011;5681;53.316;13.950;2023-05-20T10:16:41;6.95;;;4.85;;
11247;SDS011;5681;53.316;13.950;2023-05-20T10:19:14;9.63;;;5.40;;
11247;SDS011;5681;53.316;13.950;2023-05-20T10:21:55;7.75;;;5.20;;
11247;SDS011;5681;53.316;13.950;2023-05-20T10:24:28;8.30;;;5.75;;
11247;SDS011;5681;53.316;13.950;2023-05-20T10:26:56;6.70;;;5.63;;
11247;SDS011;5681;53.316;13.950;2023-05-20T10:29:24;8.90;;;5.20;;
11247;SDS011;5681;53.316;13.950;2023-05-20T10:31:51;8.30;;;5.40;;
11247;SDS011;5681;53.316;13.950;2023-05-20T10:34:18;10.65;;;5.90;;
11247;SDS011;5681;53.316;13.950;2023-05-20T10:36:56;7.60;;;5.10;;
11247;SDS011;5681;53.316;13.950;2023-05-20T10:39:24;9.65;;;5.65;;
11247;SDS011;5681;53.316;13.950;2023-05-20T10:41:51;6.30;;;5.05;;
11247;SDS011;5681;53.316;13.950;2023-05-20T10:44:18;9.73;;;6.38;;
11247;SDS011;5681;53.316;13.950;2023-05-20T10:46:45;8.07;;;5.90;;
11247;SDS011;5681;53.316;13.950;2023-05-20T10:49:21;10.07;;;5.88;;
11247;SDS011;5681;53.316;13.950;2023-05-20T10:51:47;10.43;;;5.38;;
11247;SDS011;5681;53.316;13.950;2023-05-20T10:54:13;8.18;;;5.72;;
11247;SDS011;5681;53.316;13.950;2023-05-20T10:56:49;11.75;;;6.10;;
11247;SDS011;5681;53.316;13.950;2023-05-20T10:59:16;8.93;;;5.88;;
11247;SDS011;5681;53.316;13.950;2023-05-20T11:01:43;10.45;;;5.88;;
11247;SDS011;5681;53.316;13.950;2023-05-20T11:04:11;9.13;;;5.80;;
11247;SDS011;5681;53.316;13.950;2023-05-20T11:06:38;10.45;;;5.97;;
11247;SDS011;5681;53.316;13.950;2023-05-20T11:09:15;9.77;;;5.60;;
11247;SDS011;5681;53.316;13.950;2023-05-20T11:11:41;7.07;;;5.70;;
11247;SDS011;5681;53.316;13.950;2023-05-20T11:14:08;11.18;;;6.07;;
11247;SDS011;5681;53.316;13.950;2023-05-20T11:16:37;9.50;;;6.35;;
11247;SDS011;5681;53.316;13.950;2023-05-20T11:19:05;8.27;;;6.38;;
11247;SDS011;5681;53.316;13.950;2023-05-20T11:21:33;11.00;;;6.10;;
11247;SDS011;5681;53.316;13.950;2023-05-20T11:23:59;11.90;;;6.43;;
11247;SDS011;5681;53.316;13.950;2023-05-20T11:26:26;14.10;;;6.90;;
11247;SDS011;5681;53.316;13.950;2023-05-20T11:28:54;10.68;;;7.63;;
11247;SDS011;5681;53.316;13.950;2023-05-20T11:31:20;11.25;;;7.88;;
11247;SDS011;5681;53.316;13.950;2023-05-20T11:33:49;9.43;;;6.95;;
11247;SDS011;5681;53.316;13.950;2023-05-20T11:36:15;10.38;;;8.07;;
11247;SDS011;5681;53.316;13.950;2023-05-20T11:38:44;12.20;;;8.45;;
11247;SDS011;5681;53.316;13.950;2023-05-20T11:41:10;9.23;;;6.88;;
11247;SDS011;5681;53.316;13.950;2023-05-20T11:43:37;7.53;;;6.40;;
11247;SDS011;5681;53.316;13.950;2023-05-20T11:46:05;9.55;;;6.97;;
11247;SDS011;5681;53.316;13.950;2023-05-20T11:48:32;9.88;;;6.53;;
11247;SDS011;5681;53.316;13.950;2023-05-20T11:50:58;8.35;;;5.97;;
11247;SDS011;5681;53.316;13.950;2023-05-20T11:53:24;9.15;;;6.75;;
11247;SDS011;5681;53.316;13.950;2023-05-20T11:55:52;8.90;;;6.53;;
11247;SDS011;5681;53.316;13.950;2023-05-20T11:58:22;10.30;;;6.50;;
11247;SDS011;5681;53.316;13.950;2023-05-20T12:00:50;10.40;;;7.10;;
11247;SDS011;5681;53.316;13.950;2023-05-20T12:03:16;8.10;;;6.72;;
11247;SDS011;5681;53.316;13.950;2023-05-20T12:05:43;10.07;;;7.65;;
11247;SDS011;5681;53.316;13.950;2023-05-20T12:08:11;7.93;;;6.88;;
11247;SDS011;5681;53.316;13.950;2023-05-20T12:10:38;8.93;;;6.82;;
11247;SDS011;5681;53.316;13.950;2023-05-20T12:13:06;9.20;;;6.80;;
11247;SDS011;5681;53.316;13.950;2023-05-20T12:15:34;8.65;;;6.72;;
11247;SDS011;5681;53.316;13.950;2023-05-20T12:18:01;8.55;;;6.63;;
11247;SDS011;5681;53.316;13.950;2023-05-20T12:20:28;11.13;;;6.97;;
11247;SDS011;5681;53.316;13.950;2023-05-20T12:22:54;7.10;;;6.25;;
11247;SDS011;5681;53.316;13.950;2023-05-20T12:25:21;6.50;;;5.32;;
11247;SDS011;5681;53.316;13.950;2023-05-20T12:27:48;7.88;;;5.95;;
11247;SDS011;5681;53.316;13.950;2023-05-20T12:30:16;9.60;;;6.38;;
11247;SDS011;5681;53.316;13.950;2023-05-20T12:32:44;10.88;;;5.75;;
11247;SDS011;5681;53.316;13.950;2023-05-20T12:35:11;8.73;;;6.20;;
11247;SDS011;5681;53.316;13.950;2023-05-20T12:37:38;6.78;;;5.78;;
11247;SDS011;5681;53.316;13.950;2023-05-20T12:40:06;5.85;;;5.20;;
11247;SDS011;5681;53.316;13.950;2023-05-20T12:42:35;7.93;;;5.20;;
11247;SDS011;5681;53.316;13.950;2023-05-20T12:45:02;6.68;;;5.80;;
11247;SDS011;5681;53.316;13.950;2023-05-20T12:47:30;10.93;;;5.93;;
11247;SDS011;5681;53.316;13.950;2023-05-20T12:49:57;6.78;;;5.80;;
11247;SDS011;5681;53.316;13.950;2023-05-20T12:52:24;8.32;;;5.70;;
11247;SDS011;5681;53.316;13.950;2023-05-20T12:54:50;7.63;;;5.70;;
11247;SDS011;5681;53.316;13.950;2023-05-20T12:57:16;7.53;;;5.82;;
11247;SDS011;5681;53.316;13.950;2023-05-20T12:59:43;10.38;;;6.32;;
11247;SDS011;5681;53.316;13.950;2023-05-20T13:02:10;13.10;;;5.95;;
11247;SDS011;5681;53.316;13.950;2023-05-20T13:04:37;10.48;;;6.30;;
11247;SDS011;5681;53.316;13.950;2023-05-20T13:07:04;8.07;;;5.43;;
11247;SDS011;5681;53.316;13.950;2023-05-20T13:09:30;8.75;;;5.30;;
11247;SDS011;5681;53.316;13.950;2023-05-20T13:11:58;7.97;;;5.18;;
11247;SDS011;5681;53.316;13.950;2023-05-20T13:14:24;6.03;;;5.43;;
11247;SDS011;5681;53.316;13.950;2023-05-20T13:16:51;9.23;;;5.22;;
11247;SDS011;5681;53.316;13.950;2023-05-20T13:19:19;7.45;;;5.78;;
11247;SDS011;5681;53.316;13.950;2023-05-20T13:21:47;11.68;;;5.53;;
11247;SDS011;5681;53.316;13.950;2023-05-20T13:24:13;6.80;;;4.97;;
11247;SDS011;5681;53.316;13.950;2023-05-20T13:26:40;6.93;;;5.15;;
11247;SDS011;5681;53.316;13.950;2023-05-20T13:29:06;6.28;;;5.50;;
11247;SDS011;5681;53.316;13.950;2023-05-20T13:31:33;10.50;;;5.57;;
11247;SDS011;5681;53.316;13.950;2023-05-20T13:33:59;6.75;;;4.63;;
11247;SDS011;5681;53.316;13.950;2023-05-20T13:36:25;8.40;;;4.65;;
11247;SDS011;5681;53.316;13.950;2023-05-20T13:38:53;5.07;;;4.55;;
11247;SDS011;5681;53.316;13.950;2023-05-20T13:41:19;6.32;;;4.72;;
11247;SDS011;5681;53.316;13.950;2023-05-20T13:43:46;7.45;;;4.63;;
11247;SDS011;5681;53.316;13.950;2023-05-20T13:46:12;5.82;;;4.72;;
11247;SDS011;5681;53.316;13.950;2023-05-20T13:48:38;7.47;;;4.60;;
11247;SDS011;5681;53.316;13.950;2023-05-20T13:51:05;5.63;;;4.20;;
11247;SDS011;5681;53.316;13.950;2023-05-20T13:53:31;6.90;;;4.60;;
11247;SDS011;5681;53.316;13.950;2023-05-20T13:55:59;5.13;;;4.22;;
11247;SDS011;5681;53.316;13.950;2023-05-20T13:58:25;5.70;;;4.60;;
11247;SDS011;5681;53.316;13.950;2023-05-20T14:00:52;5.18;;;4.30;;
11247;SDS011;5681;53.316;13.950;2023-05-20T14:03:19;6.97;;;4.28;;
11247;SDS011;5681;53.316;13.950;2023-05-20T14:05:45;4.97;;;4.38;;
11247;SDS011;5681;53.316;13.950;2023-05-20T14:08:12;6.75;;;4.65;;
11247;SDS011;5681;53.316;13.950;2023-05-20T14:10:38;4.85;;;3.97;;
11247;SDS011;5681;53.316;13.950;2023-05-20T14:13:06;7.68;;;4.03;;
11247;SDS011;5681;53.316;13.950;2023-05-20T14:15:34;5.85;;;4.60;;
11247;SDS011;5681;53.316;13.950;2023-05-20T14:18:01;6.45;;;4.20;;
11247;SDS011;5681;53.316;13.950;2023-05-20T14:20:27;5.63;;;4.13;;
11247;SDS011;5681;53.316;13.950;2023-05-20T14:22:53;5.50;;;4.25;;
11247;SDS011;5681;53.316;13.950;2023-05-20T14:25:20;4.18;;;3.78;;
11247;SDS011;5681;53.316;13.950;2023-05-20T14:27:46;6.55;;;4.18;;
11247;SDS011;5681;53.316;13.950;2023-05-20T14:30:14;5.72;;;3.40;;
11247;SDS011;5681;53.316;13.950;2023-05-20T14:32:40;5.38;;;4.00;;
11247;SDS011;5681;53.316;13.950;2023-05-20T14:35:07;8.63;;;3.75;;
11247;SDS011;5681;53.316;13.950;2023-05-20T14:37:33;6.30;;;4.05;;
11247;SDS011;5681;53.316;13.950;2023-05-20T14:40:00;6.50;;;3.63;;
11247;SDS011;5681;53.316;13.950;2023-05-20T14:42:26;5.47;;;3.83;;
11247;SDS011;5681;53.316;13.950;2023-05-20T14:44:53;5.55;;;3.30;;
11247;SDS011;5681;53.316;13.950;2023-05-20T14:47:20;3.88;;;3.53;;